Terminal Aerodrome Forecast
Issued by NWS Wakefield, VA

Home | Current Version | Previous Version | Text Only | Print | Product List | Glossary On
Versions: 1 2 3 4 5 6 7 8 9 10 11 12 13 14 15 16 17 18 19
270
FTUS41 KAKQ 271742 RRA
TAFSBY
TAF
KSBY 271742Z 2718/2818 17008KT P6SM SCT050
     FM271900 17008KT P6SM BKN060
     FM272200 15006KT P6SM VCTS BKN060CB
     FM280000 10005KT P6SM VCSH BKN060
     FM280600 10005KT P6SM BKN060
     FM281400 07008KT P6SM BKN045=

USA.gov is the U.S. government's official web portal to all federal, state and local government web resources and services.